createdAt,value
2022-08-14T00:02:15.088Z,19.70
2022-08-14T00:04:45.456Z,19.60
2022-08-14T00:07:14.558Z,19.70
2022-08-14T00:10:02.165Z,19.70
2022-08-14T00:12:40.037Z,18.50
2022-08-14T00:15:22.795Z,19.60
2022-08-14T00:17:53.596Z,19.50
2022-08-14T00:20:35.776Z,19.60
2022-08-14T00:23:14.528Z,19.50
2022-08-14T00:25:54.016Z,19.70
2022-08-14T00:28:35.570Z,19.60
2022-08-14T00:31:05.256Z,19.50
2022-08-14T00:33:50.801Z,19.50
2022-08-14T00:36:36.289Z,19.50
2022-08-14T00:39:14.506Z,19.40
2022-08-14T00:41:43.603Z,19.20
2022-08-14T00:44:11.173Z,19.10
2022-08-14T00:46:38.912Z,19.10
2022-08-14T00:49:06.417Z,19.10
2022-08-14T00:51:38.338Z,19.30
2022-08-14T00:54:11.113Z,19.30
2022-08-14T00:56:55.096Z,19.20
2022-08-14T00:59:25.704Z,19.20
2022-08-14T01:01:58.165Z,19.00
2022-08-14T01:04:51.736Z,19.20
2022-08-14T01:07:19.931Z,19.20
2022-08-14T01:10:07.611Z,19.10
2022-08-14T01:12:40.541Z,19.00
2022-08-14T01:15:09.695Z,18.90
2022-08-14T01:17:55.496Z,18.90
2022-08-14T01:20:41.472Z,19.00
2022-08-14T01:23:19.101Z,19.00
2022-08-14T01:25:51.549Z,19.00
2022-08-14T01:28:46.671Z,18.90
2022-08-14T01:31:16.869Z,18.90
2022-08-14T01:34:00.091Z,18.80
2022-08-14T01:36:39.849Z,18.70
2022-08-14T01:39:13.573Z,18.70
2022-08-14T01:41:43.950Z,18.70
2022-08-14T01:44:32.479Z,18.70
2022-08-14T01:47:11.606Z,18.70
2022-08-14T01:49:46.074Z,18.70
2022-08-14T01:52:59.427Z,18.70
2022-08-14T01:55:15.525Z,18.70
2022-08-14T01:58:00.459Z,18.60
2022-08-14T02:00:35.953Z,18.60
2022-08-14T02:03:06.195Z,18.60
2022-08-14T02:05:38.136Z,18.60
2022-08-14T02:08:09.632Z,18.50
2022-08-14T02:10:47.129Z,18.50
2022-08-14T02:13:19.752Z,18.60
2022-08-14T02:15:48.580Z,18.50
2022-08-14T02:18:18.392Z,18.60
2022-08-14T02:20:48.316Z,18.60
2022-08-14T02:23:15.639Z,18.70
2022-08-14T02:25:54.386Z,18.60
2022-08-14T02:28:57.565Z,18.60
2022-08-14T02:31:14.931Z,18.60
2022-08-14T02:33:42.733Z,18.60
2022-08-14T02:37:05.364Z,18.60
2022-08-14T02:38:58.732Z,18.50
2022-08-14T02:41:28.657Z,18.50
2022-08-14T02:44:01.029Z,18.60
2022-08-14T02:46:32.325Z,18.70
2022-08-14T02:49:04.411Z,18.80
2022-08-14T02:51:34.728Z,18.90
2022-08-14T02:54:07.334Z,18.90
2022-08-14T02:57:16.254Z,18.90
2022-08-14T02:59:33.707Z,19.00
2022-08-14T03:02:02.963Z,19.30
2022-08-14T03:04:31.157Z,19.50
2022-08-14T03:07:07.449Z,19.50
2022-08-14T03:10:25.348Z,19.40
2022-08-14T03:12:32.485Z,19.40
2022-08-14T03:15:14.311Z,19.20
2022-08-14T03:17:56.221Z,19.20
2022-08-14T03:20:30.604Z,19.30
2022-08-14T03:23:03.117Z,19.20
2022-08-14T03:25:33.553Z,19.20
2022-08-14T03:28:07.276Z,19.30
2022-08-14T03:30:39.178Z,19.50
2022-08-14T03:33:11.200Z,19.70
2022-08-14T03:36:05.378Z,19.90
2022-08-14T03:39:12.797Z,19.90
2022-08-14T03:41:27.367Z,20.10
2022-08-14T03:45:19.935Z,20.10
2022-08-14T03:46:56.073Z,20.10
2022-08-14T03:49:29.429Z,20.10
2022-08-14T03:52:01.331Z,20.20
2022-08-14T03:54:30.098Z,20.40
2022-08-14T03:57:02.936Z,20.50
2022-08-14T03:59:32.673Z,20.60
2022-08-14T04:02:01.718Z,20.70
2022-08-14T04:04:33.649Z,20.80
2022-08-14T04:07:01.695Z,20.80
2022-08-14T04:09:29.465Z,21.00
2022-08-14T04:11:58.277Z,20.90
2022-08-14T04:14:28.500Z,21.00
2022-08-14T04:16:55.788Z,20.80
2022-08-14T04:19:24.687Z,21.00
2022-08-14T04:24:40.552Z,21.10
2022-08-14T04:27:10.184Z,21.40
2022-08-14T04:29:44.954Z,21.50
2022-08-14T04:33:10.368Z,21.20
2022-08-14T04:35:01.180Z,21.30
2022-08-14T04:37:53.976Z,21.70
2022-08-14T04:40:40.766Z,21.60
2022-08-14T04:43:38.614Z,21.70
2022-08-14T04:46:08.293Z,21.80
2022-08-14T04:51:26.912Z,21.90
2022-08-14T04:53:55.994Z,21.90
2022-08-14T04:56:33.286Z,21.90
2022-08-14T04:59:09.666Z,22.30
2022-08-14T05:01:41.785Z,22.50
2022-08-14T05:04:19.997Z,22.40
2022-08-14T05:06:49.283Z,22.50
2022-08-14T05:09:17.168Z,22.50
2022-08-14T05:11:45.023Z,23.10
2022-08-14T05:14:33.108Z,22.90
2022-08-14T05:17:02.312Z,23.10
2022-08-14T05:19:32.726Z,23.10
2022-08-14T05:22:17.081Z,23.20
2022-08-14T05:24:52.077Z,22.90
2022-08-14T05:27:22.369Z,23.10
2022-08-14T05:29:56.851Z,23.10
2022-08-14T05:32:30.586Z,23.20
2022-08-14T05:34:59.613Z,23.10
2022-08-14T05:37:29.658Z,23.30
2022-08-14T05:39:59.223Z,23.40
2022-08-14T05:42:29.176Z,23.60
2022-08-14T05:44:59.522Z,23.60
2022-08-14T05:47:28.622Z,23.60
2022-08-14T05:49:58.437Z,23.70
2022-08-14T05:52:26.358Z,23.70
2022-08-14T05:55:08.764Z,24.00
2022-08-14T05:57:49.225Z,24.00
2022-08-14T06:00:24.943Z,24.10
2022-08-14T06:02:57.861Z,24.10
2022-08-14T06:05:29.147Z,24.20
2022-08-14T06:07:58.662Z,24.40
2022-08-14T06:10:28.623Z,24.50
2022-08-14T06:13:03.434Z,24.60
2022-08-14T06:15:31.014Z,24.50
2022-08-14T06:18:00.246Z,24.60
2022-08-14T06:20:29.995Z,24.60
2022-08-14T06:22:58.065Z,25.00
2022-08-14T06:25:27.288Z,24.90
2022-08-14T06:27:55.802Z,25.00
2022-08-14T06:30:30.359Z,24.40
2022-08-14T06:33:13.359Z,25.20
2022-08-14T06:35:43.681Z,25.50
2022-08-14T06:38:31.990Z,25.60
2022-08-14T06:40:59.370Z,25.40
2022-08-14T06:43:31.754Z,25.50
2022-08-14T06:46:01.198Z,25.50
2022-08-14T06:48:35.526Z,25.70
2022-08-14T06:51:03.194Z,25.60
2022-08-14T06:53:30.940Z,25.60
2022-08-14T06:56:02.154Z,25.80
2022-08-14T06:58:31.367Z,25.60
2022-08-14T07:01:25.037Z,26.10
2022-08-14T07:04:23.076Z,26.20
2022-08-14T07:06:59.775Z,26.50
2022-08-14T07:09:44.371Z,26.10
2022-08-14T07:12:55.124Z,26.20
2022-08-14T07:15:05.233Z,26.30
2022-08-14T07:17:34.348Z,26.00
2022-08-14T07:20:05.630Z,26.20
2022-08-14T07:22:50.047Z,26.20
2022-08-14T07:25:22.747Z,26.30
2022-08-14T07:28:01.144Z,26.50
2022-08-14T07:30:34.496Z,26.40
2022-08-14T07:33:03.739Z,26.20
2022-08-14T07:35:37.493Z,26.50
2022-08-14T07:38:18.766Z,26.60
2022-08-14T07:40:48.770Z,27.10
2022-08-14T07:43:21.817Z,27.00
2022-08-14T07:45:50.672Z,26.80
2022-08-14T07:48:19.388Z,27.20
2022-08-14T07:51:10.685Z,27.30
2022-08-14T07:53:48.555Z,27.20
2022-08-14T07:56:47.134Z,27.30
2022-08-14T07:59:12.729Z,27.40
2022-08-14T08:01:47.931Z,27.00
2022-08-14T08:04:25.114Z,26.80
2022-08-14T08:06:55.629Z,26.70
2022-08-14T08:09:31.805Z,27.00
2022-08-14T08:12:15.704Z,27.10
2022-08-14T08:14:55.437Z,27.70
2022-08-14T08:17:24.815Z,27.70
2022-08-14T08:19:52.080Z,27.70
2022-08-14T08:22:21.431Z,28.10
2022-08-14T08:24:50.386Z,28.30
2022-08-14T08:27:22.588Z,27.80
2022-08-14T08:30:02.475Z,28.30
2022-08-14T08:32:45.833Z,28.70
2022-08-14T08:35:21.498Z,28.60
2022-08-14T08:38:01.224Z,28.80
2022-08-14T08:40:42.038Z,28.30
2022-08-14T08:43:20.021Z,27.80
2022-08-14T08:46:21.566Z,28.00
2022-08-14T08:51:31.016Z,29.40
2022-08-14T08:54:18.193Z,29.40
2022-08-14T08:56:48.389Z,28.30
2022-08-14T08:59:21.469Z,28.50
2022-08-14T09:01:56.431Z,28.60
2022-08-14T09:04:27.477Z,28.80
2022-08-14T09:07:09.288Z,28.70
2022-08-14T09:09:53.521Z,28.50
2022-08-14T09:12:23.695Z,28.90
2022-08-14T09:14:53.434Z,29.20
2022-08-14T09:17:20.878Z,29.40
2022-08-14T09:19:53.985Z,28.90
2022-08-14T09:22:33.330Z,29.10
2022-08-14T09:25:07.127Z,29.00
2022-08-14T09:27:35.683Z,29.50
2022-08-14T09:30:30.680Z,28.90
2022-08-14T09:33:09.366Z,28.80
2022-08-14T09:35:38.071Z,29.30
2022-08-14T09:38:25.811Z,29.50
2022-08-14T09:41:18.195Z,29.00
2022-08-14T09:44:05.240Z,29.90
2022-08-14T09:46:35.546Z,31.00
2022-08-14T09:49:12.032Z,31.10
2022-08-14T09:51:51.785Z,30.60
2022-08-14T09:54:56.134Z,31.30
2022-08-14T09:57:27.772Z,30.50
2022-08-14T09:59:56.626Z,29.40
2022-08-14T10:02:32.272Z,29.40
2022-08-14T10:05:09.264Z,29.50
2022-08-14T10:07:59.073Z,29.80
2022-08-14T10:10:40.251Z,29.70
2022-08-14T10:13:25.437Z,32.30
2022-08-14T10:16:00.305Z,30.50
2022-08-14T10:18:28.609Z,29.00
2022-08-14T10:21:01.729Z,28.40
2022-08-14T10:23:41.826Z,28.40
2022-08-14T10:26:11.899Z,30.00
2022-08-14T10:29:18.557Z,30.80
2022-08-14T10:32:00.820Z,30.90
2022-08-14T10:34:38.731Z,29.70
2022-08-14T10:37:14.583Z,30.00
2022-08-14T10:40:01.845Z,30.50
2022-08-14T10:42:40.463Z,32.00
2022-08-14T10:45:33.843Z,30.70
2022-08-14T10:48:34.537Z,29.80
2022-08-14T10:51:01.569Z,31.20
2022-08-14T10:53:35.127Z,31.60
2022-08-14T10:56:07.125Z,31.20
2022-08-14T10:58:49.953Z,31.90
2022-08-14T11:01:17.233Z,31.60
2022-08-14T11:03:56.266Z,32.70
2022-08-14T11:06:24.942Z,32.50
2022-08-14T11:08:55.921Z,31.00
2022-08-14T11:11:35.762Z,30.50
2022-08-14T11:14:09.546Z,30.50
2022-08-14T11:16:41.094Z,29.90
2022-08-14T11:19:24.321Z,30.00
2022-08-14T11:21:56.089Z,30.80
2022-08-14T11:24:50.669Z,29.60
2022-08-14T11:27:19.098Z,29.70
2022-08-14T11:29:52.718Z,30.70
2022-08-14T11:32:36.435Z,30.10
2022-08-14T11:35:05.949Z,29.90
2022-08-14T11:37:40.477Z,29.40
2022-08-14T11:40:16.545Z,29.00
2022-08-14T11:43:08.227Z,28.70
2022-08-14T11:45:45.777Z,28.80
2022-08-14T11:49:04.323Z,29.20
2022-08-14T11:51:17.949Z,29.10
2022-08-14T11:53:52.535Z,30.10
2022-08-14T11:56:25.671Z,31.20
2022-08-14T11:59:02.897Z,30.10
2022-08-14T12:01:32.368Z,30.00
2022-08-14T12:04:21.535Z,30.90
2022-08-14T12:07:01.278Z,30.20
2022-08-14T12:09:43.036Z,30.40
2022-08-14T12:12:35.669Z,30.90
2022-08-14T12:15:06.902Z,31.90
2022-08-14T12:17:49.598Z,33.40
2022-08-14T12:20:30.283Z,32.90
2022-08-14T12:23:02.267Z,32.40
2022-08-14T12:25:34.575Z,33.60
2022-08-14T12:28:10.372Z,33.10
2022-08-14T12:30:56.693Z,32.30
2022-08-14T12:33:32.952Z,32.70
2022-08-14T12:36:05.747Z,32.70
2022-08-14T12:38:44.929Z,34.70
2022-08-14T12:41:22.114Z,35.10
2022-08-14T12:44:01.980Z,32.20
2022-08-14T12:46:35.059Z,31.40
2022-08-14T12:49:16.108Z,31.80
2022-08-14T12:51:55.837Z,32.90
2022-08-14T12:54:28.438Z,32.90
2022-08-14T12:57:20.160Z,32.40
2022-08-14T12:59:49.498Z,30.90
2022-08-14T13:02:26.228Z,30.60
2022-08-14T13:04:58.135Z,30.40
2022-08-14T13:07:32.562Z,29.80
2022-08-14T13:10:29.660Z,29.50
2022-08-14T13:13:12.939Z,29.40
2022-08-14T13:15:40.548Z,28.80
2022-08-14T13:18:11.565Z,28.50
2022-08-14T13:20:49.484Z,28.50
2022-08-14T13:23:30.482Z,28.50
2022-08-14T13:26:00.908Z,28.10
2022-08-14T13:28:32.814Z,28.40
2022-08-14T13:31:09.078Z,28.60
2022-08-14T13:33:41.273Z,29.10
2022-08-14T13:36:11.026Z,30.50
2022-08-14T13:38:53.526Z,30.60
2022-08-14T13:41:28.168Z,30.20
2022-08-14T13:44:04.032Z,29.80
2022-08-14T13:46:31.448Z,30.10
2022-08-14T13:49:00.090Z,29.40
2022-08-14T13:51:32.168Z,29.00
2022-08-14T13:54:10.610Z,28.80
2022-08-14T13:56:42.155Z,32.30
2022-08-14T13:59:11.089Z,33.60
2022-08-14T14:01:43.303Z,32.20
2022-08-14T14:04:18.887Z,33.50
2022-08-14T14:06:50.946Z,33.60
2022-08-14T14:09:37.443Z,33.40
2022-08-14T14:12:36.457Z,33.10
2022-08-14T14:15:05.391Z,32.70
2022-08-14T14:17:35.278Z,32.00
2022-08-14T14:20:07.548Z,31.60
2022-08-14T14:23:02.586Z,32.40
2022-08-14T14:25:46.049Z,31.40
2022-08-14T14:28:24.015Z,29.90
2022-08-14T14:30:54.555Z,29.10
2022-08-14T14:33:46.654Z,29.00
2022-08-14T14:36:26.178Z,29.20
2022-08-14T14:39:01.549Z,28.70
2022-08-14T14:41:37.416Z,28.00
2022-08-14T14:44:13.654Z,27.70
2022-08-14T14:46:53.288Z,27.50
2022-08-14T14:49:31.640Z,27.50
2022-08-14T14:52:13.954Z,27.30
2022-08-14T14:54:53.860Z,27.40
2022-08-14T14:57:21.319Z,27.30
2022-08-14T14:59:50.133Z,27.30
2022-08-14T15:02:32.871Z,27.30
2022-08-14T15:05:00.657Z,27.40
2022-08-14T15:07:29.781Z,27.30
2022-08-14T15:09:57.140Z,27.30
2022-08-14T15:12:55.098Z,27.30
2022-08-14T15:15:12.661Z,27.50
2022-08-14T15:17:41.990Z,27.50
2022-08-14T15:20:17.631Z,27.50
2022-08-14T15:22:59.970Z,27.50
2022-08-14T15:25:31.927Z,27.70
2022-08-14T15:28:01.077Z,27.50
2022-08-14T15:30:32.627Z,27.60
2022-08-14T15:33:00.712Z,27.50
2022-08-14T15:35:29.821Z,27.30
2022-08-14T15:38:08.844Z,27.30
2022-08-14T15:40:41.159Z,27.30
2022-08-14T15:43:13.189Z,27.30
2022-08-14T15:45:41.594Z,27.30
2022-08-14T15:48:22.603Z,27.30
2022-08-14T15:50:51.705Z,27.20
2022-08-14T15:53:31.603Z,27.20
2022-08-14T15:55:59.433Z,27.20
2022-08-14T15:58:27.487Z,27.20
2022-08-14T16:01:22.496Z,27.10
2022-08-14T16:03:58.781Z,27.10
2022-08-14T16:06:29.921Z,27.20
2022-08-14T16:09:03.429Z,27.10
2022-08-14T16:11:38.666Z,27.00
2022-08-14T16:14:14.903Z,26.60
2022-08-14T16:16:59.860Z,26.60
2022-08-14T16:19:31.317Z,26.50
2022-08-14T16:25:02.472Z,26.70
2022-08-14T16:30:27.513Z,26.70
2022-08-14T16:32:57.777Z,26.70
2022-08-14T16:35:42.637Z,26.60
2022-08-14T16:38:35.736Z,26.30
2022-08-14T16:40:24.057Z,26.60
2022-08-14T16:41:27.195Z,26.00
2022-08-14T16:44:02.108Z,25.80
2022-08-14T16:46:32.885Z,25.90
2022-08-14T16:49:01.617Z,25.70
2022-08-14T16:51:34.916Z,25.60
2022-08-14T16:54:34.569Z,25.30
2022-08-14T16:57:16.377Z,25.30
2022-08-14T16:59:52.836Z,25.30
2022-08-14T17:02:34.537Z,25.30
2022-08-14T17:05:22.065Z,25.50
2022-08-14T17:08:28.462Z,25.50
2022-08-14T17:10:52.288Z,25.50
2022-08-14T17:13:47.298Z,25.50
2022-08-14T17:16:24.996Z,25.50
2022-08-14T17:19:00.535Z,25.30
2022-08-14T17:21:38.439Z,25.40
2022-08-14T17:24:56.451Z,25.10
2022-08-14T17:27:03.746Z,25.10
2022-08-14T17:29:44.596Z,24.90
2022-08-14T17:32:29.844Z,25.00
2022-08-14T17:35:12.045Z,24.90
2022-08-14T17:37:46.396Z,24.80
2022-08-14T17:40:16.856Z,24.90
2022-08-14T17:42:51.457Z,24.90
2022-08-14T17:45:41.362Z,23.90
2022-08-14T17:49:10.096Z,24.40
2022-08-14T17:51:24.118Z,24.10
2022-08-14T17:54:03.428Z,24.00
2022-08-14T17:56:38.699Z,24.10
2022-08-14T17:59:06.857Z,24.40
2022-08-14T18:01:45.649Z,24.50
2022-08-14T18:04:28.781Z,24.40
2022-08-14T18:07:16.733Z,24.20
2022-08-14T18:09:59.977Z,24.10
2022-08-14T18:12:47.914Z,24.60
2022-08-14T18:15:19.301Z,24.50
2022-08-14T18:17:53.262Z,24.40
2022-08-14T18:21:42.103Z,24.50
2022-08-14T18:23:14.171Z,24.30
2022-08-14T18:25:52.855Z,24.30
2022-08-14T18:28:51.413Z,24.30
2022-08-14T18:31:23.397Z,24.30
2022-08-14T18:33:56.124Z,24.20
2022-08-14T18:36:49.013Z,24.30
2022-08-14T18:39:25.107Z,24.40
2022-08-14T18:41:54.796Z,24.60
2022-08-14T18:44:50.697Z,24.40
2022-08-14T18:47:18.040Z,24.60
2022-08-14T18:49:55.014Z,24.70
2022-08-14T18:52:44.104Z,24.50
2022-08-14T18:55:21.105Z,24.60
2022-08-14T18:57:58.334Z,24.40
2022-08-14T19:00:51.122Z,24.50
2022-08-14T19:03:22.674Z,24.20
2022-08-14T19:05:51.075Z,24.40
2022-08-14T19:08:24.975Z,24.40
2022-08-14T19:10:54.525Z,24.40
2022-08-14T19:13:44.431Z,24.30
2022-08-14T19:16:23.324Z,24.30
2022-08-14T19:19:00.035Z,24.40
2022-08-14T19:21:29.902Z,24.20
2022-08-14T19:24:27.701Z,24.30
2022-08-14T19:27:23.523Z,24.20
2022-08-14T19:30:11.196Z,24.30
2022-08-14T19:32:53.180Z,24.10
2022-08-14T19:35:41.703Z,23.80
2022-08-14T19:39:00.617Z,23.50
2022-08-14T19:41:35.582Z,23.20
2022-08-14T19:44:31.997Z,23.00
2022-08-14T19:47:04.834Z,23.00
2022-08-14T19:50:08.782Z,23.20
2022-08-14T19:52:37.255Z,23.40
2022-08-14T19:55:18.551Z,23.30
2022-08-14T19:57:52.079Z,23.10
2022-08-14T20:00:30.548Z,23.00
2022-08-14T20:03:12.067Z,23.20
2022-08-14T20:05:42.917Z,23.10
2022-08-14T20:09:05.546Z,23.10
2022-08-14T20:11:14.981Z,23.00
2022-08-14T20:14:09.572Z,23.00
2022-08-14T20:16:41.885Z,23.10
2022-08-14T20:19:16.538Z,22.90
2022-08-14T20:21:58.190Z,23.00
2022-08-14T20:24:41.275Z,22.80
2022-08-14T20:27:41.059Z,22.60
2022-08-14T20:30:33.861Z,22.40
2022-08-14T20:33:11.569Z,22.40
2022-08-14T20:35:49.410Z,22.40
2022-08-14T20:38:33.329Z,22.30
2022-08-14T20:41:06.876Z,22.40
2022-08-14T20:43:58.636Z,22.40
2022-08-14T20:46:31.730Z,22.50
2022-08-14T20:49:00.170Z,22.60
2022-08-14T20:51:54.751Z,22.60
2022-08-14T20:54:33.413Z,22.50
2022-08-14T20:57:10.473Z,22.30
2022-08-14T20:59:43.377Z,22.40
2022-08-14T21:02:34.249Z,22.40
2022-08-14T21:05:16.712Z,22.20
2022-08-14T21:07:50.344Z,22.20
2022-08-14T21:10:36.227Z,22.10
2022-08-14T21:14:09.260Z,22.00
2022-08-14T21:16:03.691Z,22.00
2022-08-14T21:18:35.374Z,22.10
2022-08-14T21:21:21.810Z,22.00
2022-08-14T21:23:55.781Z,21.90
2022-08-14T21:26:50.593Z,22.00
2022-08-14T21:29:16.360Z,22.00
2022-08-14T21:31:55.239Z,21.80
2022-08-14T21:34:27.303Z,21.70
2022-08-14T21:37:08.830Z,21.80
2022-08-14T21:39:36.807Z,21.90
2022-08-14T21:42:06.260Z,21.90
2022-08-14T21:44:42.877Z,21.90
2022-08-14T21:47:12.927Z,21.90
2022-08-14T21:49:46.154Z,21.80
2022-08-14T21:52:49.700Z,21.70
2022-08-14T21:55:10.205Z,21.60
2022-08-14T21:57:56.219Z,21.50
2022-08-14T22:00:42.188Z,21.30
2022-08-14T22:03:19.344Z,21.30
2022-08-14T22:05:55.172Z,21.30
2022-08-14T22:08:26.796Z,21.40
2022-08-14T22:10:56.626Z,22.00
2022-08-14T22:13:26.810Z,21.30
2022-08-14T22:16:02.039Z,21.20
2022-08-14T22:18:31.144Z,21.20
2022-08-14T22:21:05.584Z,21.10
2022-08-14T22:23:33.178Z,22.60
2022-08-14T22:26:03.359Z,21.00
2022-08-14T22:28:33.053Z,21.00
2022-08-14T22:31:10.156Z,21.00
2022-08-14T22:33:39.509Z,21.00
2022-08-14T22:36:33.843Z,20.90
2022-08-14T22:39:03.186Z,21.10
2022-08-14T22:41:42.267Z,21.10
2022-08-14T22:44:14.550Z,20.90
2022-08-14T22:46:43.515Z,21.00
2022-08-14T22:49:16.726Z,20.90
2022-08-14T22:52:04.780Z,21.10
2022-08-14T22:54:53.929Z,21.10
2022-08-14T22:57:22.465Z,21.20
2022-08-14T22:59:50.296Z,21.10
2022-08-14T23:02:32.157Z,21.00
2022-08-14T23:05:04.720Z,20.90
2022-08-14T23:08:57.534Z,20.80
2022-08-14T23:10:31.955Z,20.70
2022-08-14T23:13:03.741Z,20.70
2022-08-14T23:15:33.626Z,20.80
2022-08-14T23:18:03.349Z,20.90
2022-08-14T23:20:31.987Z,20.90
2022-08-14T23:22:59.213Z,20.90
2022-08-14T23:25:57.239Z,20.80
2022-08-14T23:28:33.281Z,20.60
2022-08-14T23:31:12.507Z,20.60
2022-08-14T23:33:51.790Z,20.70
2022-08-14T23:36:28.531Z,20.70
2022-08-14T23:39:12.318Z,20.60
2022-08-14T23:41:52.655Z,20.60
2022-08-14T23:44:22.633Z,20.60
2022-08-14T23:47:00.594Z,20.60
2022-08-14T23:49:56.822Z,20.60
2022-08-14T23:52:50.426Z,20.70
2022-08-14T23:55:11.547Z,20.50
2022-08-14T23:57:43.880Z,20.50
